Time;durP1;ratioP1;P1;durP2;ratioP2;P2;SDS_P1;SDS_P2;PMS_P1;PMS_P2;Temp;Humidity;BMP_temperature;BMP_pressure;BME280_temperature;BME280_humidity;BME280_pressure;Samples;Min_cycle;Max_cycle;Signal;HPM_P1;HPM_P2
2023/08/22 00:00:33;;;;;;;5.72;2.38;;;20.20;99.90;;;;;;5060974;28;20871;-66
2023/08/22 00:03:01;;;;;;;3.53;2.25;;;20.20;99.90;;;;;;5061434;28;20623;-65
2023/08/22 00:05:28;;;;;;;7.28;2.65;;;20.30;99.90;;;;;;5065241;28;20218;-65
2023/08/22 00:07:59;;;;;;;4.10;2.33;;;20.30;99.90;;;;;;5069657;28;20191;-66
2023/08/22 00:10:27;;;;;;;6.78;2.00;;;20.30;99.90;;;;;;5050503;28;20221;-66
2023/08/22 00:12:54;;;;;;;3.35;2.35;;;20.30;99.90;;;;;;5054302;28;20265;-66
2023/08/22 00:15:21;;;;;;;3.78;2.40;;;20.30;99.90;;;;;;5057278;28;20200;-66
2023/08/22 00:17:48;;;;;;;2.90;2.45;;;20.30;99.90;;;;;;5071677;28;20183;-66
2023/08/22 00:20:15;;;;;;;3.00;2.05;;;20.20;99.90;;;;;;5050452;28;20218;-66
2023/08/22 00:22:43;;;;;;;3.38;2.22;;;20.20;99.90;;;;;;5052578;28;20218;-66
2023/08/22 00:25:11;;;;;;;2.78;2.33;;;20.10;99.90;;;;;;5060279;28;20652;-66
2023/08/22 00:27:38;;;;;;;3.70;2.47;;;20.10;99.90;;;;;;5069281;28;20199;-66
2023/08/22 00:30:07;;;;;;;4.38;2.42;;;20.10;99.90;;;;;;5044164;28;20470;-66
2023/08/22 00:32:34;;;;;;;2.88;2.30;;;20.10;99.90;;;;;;5045255;28;20203;-66
2023/08/22 00:35:02;;;;;;;4.07;2.75;;;20.10;99.90;;;;;;5063877;28;20832;-65
2023/08/22 00:37:32;;;;;;;4.57;2.65;;;20.10;99.90;;;;;;5043556;28;20199;-66
2023/08/22 00:40:00;;;;;;;4.90;2.70;;;20.00;99.90;;;;;;5057386;28;20556;-66
2023/08/22 00:42:27;;;;;;;3.70;2.42;;;19.60;99.90;;;;;;5060271;28;20195;-65
2023/08/22 00:44:54;;;;;;;5.53;3.30;;;19.10;99.90;;;;;;5065654;28;20202;-65
2023/08/22 00:47:22;;;;;;;4.55;2.58;;;19.00;99.90;;;;;;5069345;28;20219;-65
2023/08/22 00:49:49;;;;;;;3.00;2.50;;;19.10;99.90;;;;;;5049005;28;20207;-65
2023/08/22 00:52:16;;;;;;;4.25;2.85;;;19.30;99.90;;;;;;5067222;28;20214;-65
2023/08/22 00:54:44;;;;;;;5.38;2.88;;;18.70;99.90;;;;;;5065505;28;20313;-65
2023/08/22 00:57:11;;;;;;;5.22;2.88;;;18.40;99.90;;;;;;5062730;28;20187;-65
2023/08/22 00:59:38;;;;;;;5.32;2.65;;;18.30;99.90;;;;;;5043108;28;20710;-65
2023/08/22 01:02:07;;;;;;;3.78;2.80;;;18.50;99.90;;;;;;5064121;28;20206;-65
2023/08/22 01:04:34;;;;;;;3.65;2.63;;;18.60;99.90;;;;;;5066808;28;20197;-66
2023/08/22 01:07:17;;;;;;;5.13;2.45;;;18.80;99.90;;;;;;5065556;28;20470;-65
2023/08/22 01:09:48;;;;;;;3.22;2.70;;;18.90;99.90;;;;;;5049936;28;20198;-66
2023/08/22 01:12:37;;;;;;;3.42;2.33;;;19.00;99.90;;;;;;5064311;28;20207;-69
2023/08/22 01:15:23;;;;;;;4.35;2.97;;;18.90;99.90;;;;;;5069142;28;20217;-67
2023/08/22 01:18:04;;;;;;;8.57;2.90;;;18.90;99.90;;;;;;5069541;28;20475;-66
2023/08/22 01:20:31;;;;;;;7.80;3.10;;;18.80;99.90;;;;;;5044402;28;20682;-66
2023/08/22 01:22:58;;;;;;;3.53;3.00;;;18.30;99.90;;;;;;5068300;28;20180;-66
2023/08/22 01:25:30;;;;;;;4.95;2.80;;;18.30;99.90;;;;;;5034612;28;20574;-67
2023/08/22 01:27:59;;;;;;;4.65;2.60;;;18.30;99.90;;;;;;5059133;28;20191;-66
2023/08/22 01:30:44;;;;;;;3.95;2.58;;;18.40;99.90;;;;;;5050309;28;20767;-66
2023/08/22 01:33:30;;;;;;;6.80;2.90;;;18.60;99.90;;;;;;5049630;28;20199;-67
2023/08/22 01:35:57;;;;;;;4.93;3.13;;;18.80;99.90;;;;;;5047170;28;20191;-66
2023/08/22 01:38:27;;;;;;;5.45;3.20;;;18.50;99.90;;;;;;5062032;28;20191;-68
2023/08/22 01:40:57;;;;;;;9.52;3.53;;;18.10;99.90;;;;;;5048551;28;20195;-67
2023/08/22 01:43:25;;;;;;;5.03;2.85;;;18.10;99.90;;;;;;5046503;28;20195;-67
2023/08/22 01:45:52;;;;;;;4.00;2.90;;;18.20;99.90;;;;;;5067916;28;20203;-66
2023/08/22 01:48:19;;;;;;;7.30;3.58;;;18.10;99.90;;;;;;5051238;28;20277;-66
2023/08/22 01:50:46;;;;;;;9.15;3.67;;;17.80;99.90;;;;;;5065863;28;20292;-66
2023/08/22 01:53:13;;;;;;;4.18;3.40;;;17.80;99.90;;;;;;5031155;28;20196;-67
2023/08/22 01:55:40;;;;;;;7.47;3.70;;;18.00;99.90;;;;;;5064913;28;20192;-66
2023/08/22 01:58:10;;;;;;;4.63;3.03;;;18.20;99.90;;;;;;5050968;28;20197;-65
2023/08/22 02:04:38;;;;;;;4.45;3.30;;;18.00;99.90;;;;;;5064155;28;20244;-66
2023/08/22 02:07:05;;;;;;;5.60;3.08;;;17.80;99.90;;;;;;5034181;28;20191;-70
2023/08/22 02:09:33;;;;;;;6.78;2.53;;;17.80;99.90;;;;;;5039526;28;20673;-66
2023/08/22 02:11:59;;;;;;;4.30;2.95;;;17.60;99.90;;;;;;5047565;28;20207;-67
2023/08/22 02:14:27;;;;;;;8.52;3.28;;;17.60;99.90;;;;;;5030164;28;20191;-67
2023/08/22 02:16:58;;;;;;;5.45;3.03;;;17.50;99.90;;;;;;5051551;28;20191;-67
2023/08/22 02:19:25;;;;;;;6.80;3.67;;;17.80;99.90;;;;;;5050157;28;20210;-67
2023/08/22 02:21:53;;;;;;;3.85;3.15;;;18.00;99.90;;;;;;5031883;28;20670;-66
2023/08/22 02:24:20;;;;;;;4.10;2.97;;;18.20;99.90;;;;;;5033477;28;20210;-71
2023/08/22 02:26:47;;;;;;;5.97;3.13;;;18.20;99.90;;;;;;5049928;28;20187;-67
2023/08/22 02:29:14;;;;;;;4.28;2.90;;;17.90;99.90;;;;;;5067276;28;20658;-65
2023/08/22 02:31:41;;;;;;;5.70;3.30;;;17.60;99.90;;;;;;5065221;28;20229;-70
2023/08/22 02:34:08;;;;;;;12.27;4.25;;;17.70;99.90;;;;;;5046772;28;20196;-71
2023/08/22 02:36:35;;;;;;;6.90;3.28;;;17.90;99.90;;;;;;5064250;28;20735;-72
2023/08/22 02:39:05;;;;;;;3.13;2.80;;;18.10;99.90;;;;;;5042766;28;20196;-68
2023/08/22 02:41:36;;;;;;;4.28;3.40;;;18.20;99.90;;;;;;5060752;28;20635;-72
2023/08/22 02:44:03;;;;;;;6.60;3.17;;;18.40;99.90;;;;;;5043967;28;20609;-72
2023/08/22 02:46:33;;;;;;;4.93;3.30;;;18.40;99.90;;;;;;5033529;28;20198;-71
2023/08/22 02:49:00;;;;;;;4.40;3.15;;;18.50;99.90;;;;;;5068631;28;20198;-72
2023/08/22 02:51:27;;;;;;;3.70;3.05;;;18.60;99.90;;;;;;5048064;28;20238;-72
2023/08/22 02:53:54;;;;;;;3.08;2.78;;;18.70;99.90;;;;;;5031259;28;20257;-73
2023/08/22 02:56:21;;;;;;;8.35;3.67;;;18.80;99.90;;;;;;5044995;28;20656;-72
2023/08/22 02:58:48;;;;;;;4.95;2.83;;;18.60;99.90;;;;;;5045719;28;20663;-72
2023/08/22 03:01:16;;;;;;;4.95;3.40;;;18.20;99.90;;;;;;5045318;28;20199;-70
2023/08/22 03:03:43;;;;;;;3.90;3.05;;;18.00;99.90;;;;;;5062796;28;20223;-70
2023/08/22 03:06:10;;;;;;;4.05;2.90;;;17.70;99.90;;;;;;5029812;28;20211;-70
2023/08/22 03:08:38;;;;;;;3.33;3.00;;;17.60;99.90;;;;;;5043893;28;20726;-69
2023/08/22 03:11:05;;;;;;;12.70;3.38;;;17.50;99.90;;;;;;5048607;28;20804;-71
2023/08/22 03:13:32;;;;;;;5.32;2.90;;;17.50;99.90;;;;;;5061616;28;20700;-71
2023/08/22 03:15:59;;;;;;;6.05;3.22;;;17.70;99.90;;;;;;5046644;28;20191;-70
2023/08/22 03:18:31;;;;;;;3.40;3.08;;;17.80;99.90;;;;;;5042484;28;20202;-68
2023/08/22 03:20:58;;;;;;;6.38;3.28;;;18.00;99.90;;;;;;5046496;28;20290;-67
2023/08/22 03:23:25;;;;;;;4.82;3.33;;;18.10;99.90;;;;;;5045106;28;20549;-68
2023/08/22 03:26:00;;;;;;;6.28;2.88;;;17.90;99.90;;;;;;5049232;28;20191;-73
2023/08/22 03:28:29;;;;;;;5.93;3.20;;;17.80;99.90;;;;;;5046192;28;20190;-73
2023/08/22 03:30:58;;;;;;;5.90;3.10;;;17.80;99.90;;;;;;5059838;28;20556;-70
2023/08/22 03:33:25;;;;;;;4.68;2.90;;;17.60;99.90;;;;;;5031642;28;20666;-71
2023/08/22 03:35:54;;;;;;;7.85;3.40;;;17.60;99.90;;;;;;5048702;28;20284;-72
2023/08/22 03:38:22;;;;;;;7.03;4.07;;;17.60;99.90;;;;;;5039315;28;20229;-68
2023/08/22 03:40:50;;;;;;;9.20;3.83;;;17.70;99.90;;;;;;5044695;28;20186;-70
2023/08/22 03:43:20;;;;;;;5.25;3.33;;;17.50;99.90;;;;;;5052315;28;20194;-70
2023/08/22 03:45:47;;;;;;;4.10;3.67;;;17.60;99.90;;;;;;5051883;28;20179;-71
2023/08/22 03:48:15;;;;;;;5.68;3.47;;;17.60;99.90;;;;;;5059824;28;20222;-68
2023/08/22 03:50:42;;;;;;;5.30;3.70;;;17.60;99.90;;;;;;5043970;28;20231;-71
2023/08/22 03:53:11;;;;;;;19.67;3.20;;;17.70;99.90;;;;;;5051294;28;20529;-72
2023/08/22 03:55:40;;;;;;;9.45;4.35;;;17.80;99.90;;;;;;5051035;28;20573;-71
2023/08/22 03:58:07;;;;;;;6.47;3.70;;;17.90;99.90;;;;;;5032346;28;20656;-71
2023/08/22 04:00:35;;;;;;;4.35;3.47;;;18.00;99.90;;;;;;5012656;28;20223;-72
2023/08/22 04:03:02;;;;;;;4.80;4.00;;;18.10;99.90;;;;;;5043146;28;20236;-73
2023/08/22 04:05:30;;;;;;;4.35;3.00;;;18.20;99.90;;;;;;5031438;28;20210;-75
2023/08/22 04:07:57;;;;;;;4.38;3.05;;;18.20;99.90;;;;;;5051309;28;20370;-75
2023/08/22 04:10:25;;;;;;;6.68;3.08;;;18.10;99.90;;;;;;5046790;28;20199;-72
2023/08/22 04:12:52;;;;;;;9.75;3.47;;;18.00;99.90;;;;;;5045190;28;20216;-66
2023/08/22 04:15:20;;;;;;;5.05;3.40;;;18.10;99.90;;;;;;5050200;28;20265;-67
2023/08/22 04:17:47;;;;;;;6.72;4.60;;;18.20;99.90;;;;;;5039038;28;20211;-70
2023/08/22 04:20:17;;;;;;;7.80;3.80;;;18.10;99.90;;;;;;5049581;28;20282;-75
2023/08/22 04:22:44;;;;;;;9.02;2.95;;;18.30;99.90;;;;;;5048382;28;20207;-70
2023/08/22 04:25:11;;;;;;;3.63;3.28;;;18.40;99.90;;;;;;5038895;28;20200;-71
2023/08/22 04:27:39;;;;;;;5.18;3.28;;;18.50;99.90;;;;;;5039602;28;20255;-74
2023/08/22 04:30:09;;;;;;;7.22;4.05;;;18.40;99.90;;;;;;5065078;28;20210;-71
2023/08/22 04:32:37;;;;;;;7.70;4.47;;;18.30;99.90;;;;;;5045872;28;20676;-71
2023/08/22 04:35:05;;;;;;;5.15;3.53;;;18.50;99.90;;;;;;5016257;28;20196;-67
2023/08/22 04:37:33;;;;;;;6.93;5.25;;;18.60;99.90;;;;;;5049044;28;20226;-72
2023/08/22 04:40:03;;;;;;;7.65;4.88;;;18.60;99.90;;;;;;5036156;28;20214;-73
2023/08/22 04:42:36;;;;;;;7.55;3.85;;;18.60;99.90;;;;;;5025578;28;20679;-70
2023/08/22 04:45:05;;;;;;;8.55;4.35;;;18.70;99.90;;;;;;5033433;28;20683;-70
2023/08/22 04:47:32;;;;;;;5.07;3.42;;;18.40;99.90;;;;;;5026254;28;20196;-69
2023/08/22 04:49:59;;;;;;;6.75;4.78;;;18.30;99.90;;;;;;5047692;28;20640;-69
2023/08/22 04:52:26;;;;;;;4.57;3.30;;;18.30;99.90;;;;;;5052531;28;20214;-69
2023/08/22 04:54:56;;;;;;;8.20;3.50;;;18.30;99.90;;;;;;5040115;28;20643;-69
2023/08/22 04:57:24;;;;;;;7.78;4.35;;;18.30;99.90;;;;;;5041465;28;20202;-68
2023/08/22 04:59:53;;;;;;;4.82;4.00;;;18.00;99.90;;;;;;5052919;28;20253;-70
2023/08/22 05:02:22;;;;;;;6.28;4.15;;;18.10;99.90;;;;;;5034797;28;20218;-69
2023/08/22 05:04:50;;;;;;;5.55;4.07;;;18.10;99.90;;;;;;5042485;28;20226;-68
2023/08/22 05:07:17;;;;;;;4.57;3.28;;;18.30;99.90;;;;;;5052784;28;20191;-68
2023/08/22 05:09:44;;;;;;;4.28;3.17;;;18.30;99.90;;;;;;5048383;28;20195;-69
2023/08/22 05:12:11;;;;;;;6.28;3.90;;;18.40;99.90;;;;;;5049524;28;20204;-70
2023/08/22 05:14:41;;;;;;;8.05;4.05;;;18.50;99.90;;;;;;5051246;28;20188;-73
2023/08/22 05:17:09;;;;;;;5.55;4.38;;;18.50;99.90;;;;;;5047890;28;20210;-71
2023/08/22 05:19:39;;;;;;;9.65;4.28;;;18.40;99.90;;;;;;5045211;28;20203;-67
2023/08/22 05:22:08;;;;;;;5.80;3.70;;;18.40;99.90;;;;;;5054435;28;20746;-66
2023/08/22 05:24:36;;;;;;;11.77;3.92;;;18.30;99.90;;;;;;5039141;28;20199;-67
2023/08/22 05:27:03;;;;;;;6.20;4.47;;;18.20;99.90;;;;;;5042372;28;20199;-67
2023/08/22 05:29:30;;;;;;;4.43;3.70;;;18.30;99.90;;;;;;5064095;28;20492;-69
2023/08/22 05:31:58;;;;;;;6.60;3.55;;;18.30;99.90;;;;;;5048884;28;20207;-65
2023/08/22 05:34:25;;;;;;;4.40;3.65;;;18.10;99.90;;;;;;5051937;28;20226;-67
2023/08/22 05:36:52;;;;;;;6.57;4.22;;;18.20;99.90;;;;;;5050911;28;20253;-67
2023/08/22 05:39:19;;;;;;;6.63;4.07;;;18.40;99.90;;;;;;5069142;28;20260;-70
2023/08/22 05:41:46;;;;;;;4.68;3.53;;;18.80;99.90;;;;;;5061412;28;20195;-70
2023/08/22 05:44:13;;;;;;;7.93;4.00;;;19.20;99.90;;;;;;5049860;28;20200;-71
2023/08/22 05:46:40;;;;;;;8.05;4.03;;;19.40;99.90;;;;;;5050040;28;20195;-72
2023/08/22 05:49:09;;;;;;;12.90;3.90;;;19.50;99.90;;;;;;5062699;28;20627;-68
2023/08/22 05:51:36;;;;;;;8.70;4.53;;;19.60;99.90;;;;;;5047242;28;20596;-75
2023/08/22 05:54:04;;;;;;;5.93;4.30;;;19.60;99.90;;;;;;5049871;28;20210;-74
2023/08/22 05:56:31;;;;;;;9.23;4.18;;;19.50;99.90;;;;;;5026460;28;20298;-74
2023/08/22 05:58:58;;;;;;;10.57;4.57;;;19.10;99.90;;;;;;5023755;28;20293;-68
2023/08/22 06:01:25;;;;;;;5.93;4.22;;;18.90;99.90;;;;;;5052340;28;20213;-75
2023/08/22 06:03:52;;;;;;;6.90;4.15;;;19.50;99.90;;;;;;5043970;28;20770;-74
2023/08/22 06:06:19;;;;;;;7.07;3.65;;;21.30;99.90;;;;;;5042672;28;20425;-75
2023/08/22 06:08:47;;;;;;;7.45;3.33;;;24.10;99.90;;;;;;5031179;28;20197;-75
2023/08/22 06:11:14;;;;;;;5.32;3.17;;;26.40;99.90;;;;;;5032169;28;20243;-75
2023/08/22 06:13:41;;;;;;;12.18;3.50;;;28.60;99.90;;;;;;5022170;28;20338;-76
2023/08/22 06:16:10;;;;;;;4.30;3.17;;;30.20;99.90;;;;;;5040759;28;20796;-75
2023/08/22 06:18:38;;;;;;;6.38;3.30;;;31.20;99.90;;;;;;5036265;28;20662;-75
2023/08/22 06:21:05;;;;;;;6.30;3.20;;;31.40;99.90;;;;;;5039925;28;20264;-76
2023/08/22 06:23:32;;;;;;;10.15;3.33;;;30.40;99.90;;;;;;5035116;28;20199;-75
2023/08/22 06:26:00;;;;;;;4.82;3.30;;;31.70;99.90;;;;;;5040936;28;20199;-69
2023/08/22 06:28:27;;;;;;;5.65;3.63;;;32.90;99.90;;;;;;5027486;28;20301;-69
2023/08/22 06:30:54;;;;;;;4.55;3.90;;;33.90;99.90;;;;;;5060856;28;20195;-69
2023/08/22 06:33:21;;;;;;;5.78;3.92;;;34.90;99.90;;;;;;5039386;28;20754;-69
2023/08/22 06:35:48;;;;;;;5.55;3.83;;;34.20;99.90;;;;;;5039343;28;20605;-68
2023/08/22 06:38:15;;;;;;;11.95;4.28;;;33.20;99.90;;;;;;5025059;28;20616;-75
2023/08/22 06:40:42;;;;;;;6.95;4.78;;;33.70;99.90;;;;;;5042369;28;20203;-68
2023/08/22 06:43:10;;;;;;;6.07;4.40;;;35.10;99.90;;;;;;5057771;28;20272;-74
2023/08/22 06:45:37;;;;;;;5.50;4.65;;;36.30;99.90;;;;;;5042287;28;20698;-69
2023/08/22 06:48:05;;;;;;;9.10;4.30;;;37.30;99.90;;;;;;5040590;28;20631;-68
2023/08/22 06:50:32;;;;;;;9.30;4.70;;;38.20;99.90;;;;;;5053316;28;20281;-69
2023/08/22 06:52:59;;;;;;;6.32;4.43;;;37.20;99.90;;;;;;5045359;28;20640;-70
2023/08/22 06:55:26;;;;;;;10.35;5.20;;;37.00;99.90;;;;;;5047844;28;20191;-75
2023/08/22 06:57:53;;;;;;;10.60;5.63;;;33.60;99.90;;;;;;5047110;28;20674;-69
2023/08/22 07:00:21;;;;;;;12.38;5.22;;;32.30;99.90;;;;;;5024266;28;20655;-69
2023/08/22 07:02:48;;;;;;;9.20;5.40;;;30.00;99.90;;;;;;5044766;28;20707;-69
2023/08/22 07:05:15;;;;;;;6.03;4.85;;;31.70;99.90;;;;;;5040939;28;20330;-68
2023/08/22 07:07:43;;;;;;;6.72;5.22;;;31.10;99.90;;;;;;5047226;28;20191;-74
2023/08/22 07:10:11;;;;;;;5.88;5.30;;;30.80;99.90;;;;;;5047614;28;20975;-75
2023/08/22 07:12:41;;;;;;;7.38;5.20;;;31.40;99.90;;;;;;5027928;28;20207;-68
2023/08/22 07:15:08;;;;;;;11.40;5.05;;;29.10;99.90;;;;;;5040982;28;20179;-74
2023/08/22 07:17:35;;;;;;;9.65;5.88;;;32.40;99.90;;;;;;5058002;28;20253;-74
2023/08/22 07:20:03;;;;;;;12.82;6.30;;;33.70;99.90;;;;;;5040159;28;20671;-76
2023/08/22 07:22:32;;;;;;;8.23;4.70;;;33.00;99.90;;;;;;5044866;28;20199;-75
2023/08/22 07:24:59;;;;;;;6.97;5.00;;;36.50;99.90;;;;;;5044305;28;20275;-75
2023/08/22 07:27:26;;;;;;;8.95;5.05;;;39.10;99.90;;;;;;5046262;28;20198;-69
2023/08/22 07:29:54;;;;;;;7.43;5.00;;;41.50;99.90;;;;;;5050663;28;20190;-77
2023/08/22 07:32:21;;;;;;;7.03;5.25;;;42.60;99.90;;;;;;5025888;28;21240;-77
2023/08/22 07:34:48;;;;;;;7.38;5.22;;;43.70;99.90;;;;;;5056860;28;20194;-69
2023/08/22 07:37:16;;;;;;;6.75;5.40;;;43.70;99.90;;;;;;5030602;28;20203;-69
2023/08/22 07:39:43;;;;;;;10.57;5.45;;;41.10;99.90;;;;;;5054659;28;20296;-69
2023/08/22 07:42:10;;;;;;;9.23;5.43;;;41.40;99.90;;;;;;5059703;28;20257;-69
2023/08/22 07:44:37;;;;;;;6.47;5.00;;;41.60;99.90;;;;;;5026709;28;20656;-69
2023/08/22 07:47:04;;;;;;;7.35;5.43;;;41.90;99.90;;;;;;5035990;28;20194;-69
2023/08/22 07:49:31;;;;;;;9.18;5.68;;;41.30;99.90;;;;;;5055050;28;20686;-69
2023/08/22 07:51:58;;;;;;;7.93;5.18;;;37.40;99.90;;;;;;5044592;28;20584;-69
2023/08/22 07:54:25;;;;;;;7.43;6.32;;;35.40;99.90;;;;;;5036286;28;20627;-75
2023/08/22 07:56:52;;;;;;;10.10;6.38;;;37.50;99.90;;;;;;5043368;28;20191;-75
2023/08/22 07:59:34;;;;;;;5.88;5.13;;;41.00;99.90;;;;;;5038242;28;20205;-76
2023/08/22 08:02:01;;;;;;;8.52;5.63;;;42.70;99.90;;;;;;5044246;28;20230;-76
2023/08/22 08:04:30;;;;;;;8.80;6.68;;;43.20;99.90;;;;;;5045825;28;20282;-77
2023/08/22 08:06:57;;;;;;;7.20;5.68;;;42.80;99.90;;;;;;5038061;28;20194;-76
2023/08/22 08:09:24;;;;;;;6.65;4.90;;;39.30;99.90;;;;;;5045593;28;20275;-76
2023/08/22 08:12:01;;;;;;;17.33;5.90;;;41.20;99.90;;;;;;5028663;28;20194;-76
2023/08/22 08:14:28;;;;;;;6.60;5.47;;;43.30;99.90;;;;;;5027626;28;20214;-76
2023/08/22 08:16:55;;;;;;;11.50;5.95;;;45.70;99.90;;;;;;5042712;28;20296;-76
2023/08/22 08:19:22;;;;;;;7.38;5.32;;;46.70;99.90;;;;;;5040569;28;20203;-76
2023/08/22 08:21:53;;;;;;;7.32;5.22;;;48.00;99.90;;;;;;5044472;28;20280;-76
2023/08/22 08:24:20;;;;;;;6.22;5.63;;;47.60;99.90;;;;;;5035120;28;20206;-76
2023/08/22 08:26:48;;;;;;;8.25;5.43;;;49.20;99.90;;;;;;5038681;28;20203;-76
2023/08/22 08:29:17;;;;;;;7.63;4.90;;;48.40;99.90;;;;;;5049872;28;20203;-76
2023/08/22 08:31:44;;;;;;;6.07;5.53;;;47.90;99.90;;;;;;5051757;28;20202;-76
2023/08/22 08:34:11;;;;;;;7.97;5.63;;;49.20;99.90;;;;;;5055329;28;20214;-77
2023/08/22 08:36:38;;;;;;;9.95;5.63;;;49.10;99.90;;;;;;5058317;28;21435;-76
2023/08/22 08:39:05;;;;;;;8.27;5.53;;;47.90;99.90;;;;;;5046845;28;20191;-76
2023/08/22 08:41:33;;;;;;;7.03;5.78;;;46.50;99.90;;;;;;5013081;28;20194;-76
2023/08/22 08:44:03;;;;;;;10.25;8.55;;;43.00;99.90;;;;;;5049453;28;20513;-75
2023/08/22 08:46:30;;;;;;;11.00;7.43;;;40.30;99.90;;;;;;5047253;28;20199;-74
2023/08/22 08:48:58;;;;;;;10.10;7.88;;;38.80;99.90;;;;;;5056441;28;20191;-75
2023/08/22 08:51:26;;;;;;;11.68;7.22;;;38.70;99.90;;;;;;5046730;28;20305;-74
2023/08/22 08:53:54;;;;;;;8.13;5.03;;;37.90;99.90;;;;;;5043257;28;20226;-75
2023/08/22 08:56:22;;;;;;;9.07;5.93;;;36.90;99.90;;;;;;5061631;28;20216;-74
2023/08/22 08:58:50;;;;;;;6.43;5.13;;;36.30;99.90;;;;;;5058001;28;20198;-75
2023/08/22 09:01:18;;;;;;;9.73;4.65;;;35.90;99.90;;;;;;5042973;28;20187;-75
2023/08/22 09:03:46;;;;;;;7.45;4.60;;;37.00;99.90;;;;;;5053482;28;20705;-75
2023/08/22 09:06:14;;;;;;;6.50;4.55;;;38.80;99.90;;;;;;5062957;28;20573;-76
2023/08/22 09:09:08;;;;;;;6.85;4.47;;;40.90;99.90;;;;;;5025662;28;20203;-75
2023/08/22 09:11:39;;;;;;;5.00;4.50;;;42.80;99.90;;;;;;5056124;28;20188;-76
2023/08/22 09:14:19;;;;;;;12.45;4.90;;;45.30;99.90;;;;;;5040398;28;20304;-75
2023/08/22 09:16:47;;;;;;;5.75;4.53;;;45.10;99.90;;;;;;5063109;28;20267;-76
2023/08/22 09:19:15;;;;;;;9.45;4.50;;;44.10;99.90;;;;;;5042553;28;20715;-75
2023/08/22 09:22:17;;;;;;;4.95;4.35;;;44.00;99.90;;;;;;5059766;28;20235;-75
2023/08/22 09:24:52;;;;;;;6.55;4.90;;;42.10;99.90;;;;;;4960725;28;20642;-75
2023/08/22 09:27:31;;;;;;;4.80;4.30;;;37.90;99.90;;;;;;5029642;28;20224;-75
2023/08/22 09:30:05;;;;;;;7.97;4.40;;;35.80;99.90;;;;;;5042613;28;20248;-75
2023/08/22 09:32:33;;;;;;;4.30;3.90;;;36.20;99.90;;;;;;5038338;28;20298;-75
2023/08/22 09:35:02;;;;;;;5.45;4.95;;;38.10;99.90;;;;;;5042326;28;20312;-75
2023/08/22 09:37:34;;;;;;;6.53;4.70;;;37.60;99.90;;;;;;5040118;28;20218;-71
2023/08/22 09:40:05;;;;;;;6.53;4.18;;;37.90;99.90;;;;;;5041013;28;20195;-71
2023/08/22 09:42:37;;;;;;;4.38;3.97;;;40.30;99.90;;;;;;5053914;28;20210;-71
2023/08/22 09:45:05;;;;;;;8.20;4.68;;;41.40;99.90;;;;;;5056614;28;20273;-71
2023/08/22 09:47:39;;;;;;;5.38;4.30;;;40.80;99.90;;;;;;5062538;28;20199;-71
2023/08/22 09:50:07;;;;;;;6.25;4.07;;;41.50;99.90;;;;;;5045064;28;20195;-71
2023/08/22 09:52:39;;;;;;;6.80;4.40;;;40.40;99.90;;;;;;5063136;28;20206;-71
2023/08/22 09:55:10;;;;;;;4.30;3.90;;;38.60;99.90;;;;;;5063402;28;20183;-71
2023/08/22 09:57:38;;;;;;;7.15;4.13;;;37.40;99.90;;;;;;5041018;28;20210;-71
2023/08/22 10:00:09;;;;;;;5.13;4.60;;;36.70;99.90;;;;;;5061192;28;20190;-71
2023/08/22 10:02:41;;;;;;;4.90;4.50;;;37.70;99.90;;;;;;5061756;28;20271;-71
2023/08/22 10:05:10;;;;;;;7.53;4.60;;;37.70;99.90;;;;;;5062070;28;20252;-71
2023/08/22 10:07:38;;;;;;;7.28;4.40;;;36.30;99.90;;;;;;5043406;28;20235;-71
2023/08/22 10:10:05;;;;;;;6.55;5.00;;;36.50;99.90;;;;;;5041982;28;20197;-70
2023/08/22 10:12:34;;;;;;;9.40;4.93;;;36.10;99.90;;;;;;5055103;28;20592;-70
2023/08/22 10:15:05;;;;;;;6.63;4.50;;;35.30;99.90;;;;;;5062719;28;20276;-71
2023/08/22 10:17:33;;;;;;;8.73;4.97;;;35.50;99.90;;;;;;5062421;28;20673;-70
2023/08/22 10:20:07;;;;;;;10.77;4.65;;;36.10;99.90;;;;;;5042251;28;20257;-71
2023/08/22 10:22:34;;;;;;;6.22;4.80;;;36.30;99.90;;;;;;5060362;28;20177;-68
2023/08/22 10:25:04;;;;;;;5.63;4.40;;;35.80;99.90;;;;;;5063040;28;20198;-68
2023/08/22 10:27:32;;;;;;;5.72;4.60;;;35.20;99.90;;;;;;5061624;28;20202;-68
2023/08/22 10:30:15;;;;;;;5.80;4.72;;;34.60;99.90;;;;;;5044084;28;20211;-68
2023/08/22 10:33:02;;;;;;;5.85;4.60;;;33.40;99.90;;;;;;5025025;28;20651;-70
2023/08/22 10:35:32;;;;;;;5.10;4.60;;;33.50;99.90;;;;;;5063002;28;20591;-65
2023/08/22 10:37:59;;;;;;;6.55;4.50;;;33.70;99.90;;;;;;5044416;28;20203;-64
2023/08/22 10:40:28;;;;;;;7.88;4.60;;;33.30;99.90;;;;;;5061259;28;20191;-65
2023/08/22 10:43:09;;;;;;;8.88;4.32;;;33.20;99.90;;;;;;5061782;28;20649;-65
2023/08/22 10:45:51;;;;;;;7.68;4.75;;;33.70;99.90;;;;;;5043647;28;20239;-65
2023/08/22 10:48:20;;;;;;;4.93;4.30;;;33.80;99.90;;;;;;5062504;28;20198;-66
2023/08/22 10:50:49;;;;;;;6.75;4.90;;;33.50;99.90;;;;;;5061713;28;20250;-66
2023/08/22 10:53:25;;;;;;;4.97;4.50;;;34.30;99.90;;;;;;5060831;28;20229;-66
2023/08/22 10:55:53;;;;;;;5.80;4.78;;;32.80;99.90;;;;;;5060839;28;20269;-66
2023/08/22 10:58:36;;;;;;;5.53;4.78;;;33.30;99.90;;;;;;5042187;28;20191;-65
2023/08/22 11:01:09;;;;;;;6.55;4.93;;;33.30;99.90;;;;;;5043590;28;20195;-64
2023/08/22 11:03:36;;;;;;;5.88;4.55;;;32.30;99.90;;;;;;5061032;28;20714;-70
2023/08/22 11:06:14;;;;;;;6.75;4.93;;;32.70;99.90;;;;;;5061823;28;20276;-69
2023/08/22 11:08:43;;;;;;;5.45;4.80;;;31.50;99.90;;;;;;5054886;28;20269;-69
2023/08/22 11:11:15;;;;;;;8.63;4.75;;;32.00;99.90;;;;;;5043588;28;20191;-71
2023/08/22 11:13:43;;;;;;;7.90;5.15;;;33.60;99.90;;;;;;5032780;28;20211;-71
2023/08/22 11:16:15;;;;;;;7.00;5.03;;;34.40;99.90;;;;;;5040720;28;20554;-71
2023/08/22 11:18:45;;;;;;;7.45;5.65;;;35.30;99.90;;;;;;5043125;28;20757;-71
2023/08/22 11:21:13;;;;;;;7.45;5.10;;;34.70;99.90;;;;;;5043532;28;20228;-70
2023/08/22 11:23:42;;;;;;;7.85;5.40;;;32.90;99.90;;;;;;5060805;28;20290;-71
2023/08/22 11:26:10;;;;;;;6.75;5.28;;;31.60;99.90;;;;;;5060776;28;20252;-69
2023/08/22 11:28:37;;;;;;;9.45;5.40;;;32.20;99.90;;;;;;5060575;28;20194;-69
2023/08/22 11:31:05;;;;;;;8.35;4.85;;;32.90;99.90;;;;;;5043293;28;20574;-71
2023/08/22 11:33:48;;;;;;;6.63;5.93;;;32.90;99.90;;;;;;5042065;28;20314;-71
2023/08/22 11:36:15;;;;;;;7.28;5.32;;;33.10;99.90;;;;;;5061047;28;20861;-71
2023/08/22 11:38:43;;;;;;;9.32;8.00;;;32.70;99.90;;;;;;5043590;28;20217;-72
2023/08/22 11:41:12;;;;;;;9.85;7.00;;;34.90;99.90;;;;;;5075826;22;20714;-81
2023/08/22 11:43:46;;;;;;;6.13;5.53;;;36.90;99.90;;;;;;5051061;28;20501;-81
2023/08/22 11:46:14;;;;;;;5.65;4.88;;;37.60;99.90;;;;;;5056639;28;20193;-78
2023/08/22 11:48:42;;;;;;;6.93;5.88;;;36.80;99.90;;;;;;5058722;28;20206;-85
2023/08/22 11:51:21;;;;;;;8.00;6.78;;;35.20;99.90;;;;;;5060076;28;20194;-81
2023/08/22 11:53:57;;;;;;;8.73;6.93;;;33.60;99.90;;;;;;5080231;22;20230;-69
2023/08/22 11:56:24;;;;;;;9.98;7.63;;;32.60;99.90;;;;;;5040880;28;20241;-67
2023/08/22 11:58:52;;;;;;;7.40;6.32;;;32.30;99.90;;;;;;5041253;28;20297;-67
2023/08/22 12:01:21;;;;;;;5.95;5.25;;;32.80;99.90;;;;;;5024549;28;20219;-67
2023/08/22 12:03:48;;;;;;;6.70;5.50;;;33.20;99.90;;;;;;5042688;28;20274;-68
2023/08/22 12:06:16;;;;;;;4.50;4.10;;;33.30;99.90;;;;;;5046738;28;20229;-68
2023/08/22 12:08:54;;;;;;;5.03;4.53;;;33.90;99.90;;;;;;5029039;28;20294;-67
2023/08/22 12:11:26;;;;;;;7.03;4.88;;;33.40;99.90;;;;;;5045270;28;21065;-68
2023/08/22 12:13:53;;;;;;;8.02;4.13;;;33.40;99.90;;;;;;5061269;28;20229;-67
2023/08/22 12:16:20;;;;;;;5.63;5.00;;;33.80;99.90;;;;;;5030192;28;20260;-67
2023/08/22 12:18:47;;;;;;;7.28;5.55;;;34.10;99.90;;;;;;5062685;28;20295;-68
2023/08/22 12:21:14;;;;;;;9.30;5.85;;;34.50;99.90;;;;;;5045270;28;20218;-67
2023/08/22 12:23:42;;;;;;;9.23;5.38;;;34.60;99.90;;;;;;5062185;28;20232;-67
2023/08/22 12:26:09;;;;;;;7.45;5.72;;;34.50;99.90;;;;;;5045695;28;20670;-68
2023/08/22 12:28:36;;;;;;;5.82;5.00;;;35.00;99.90;;;;;;5048574;28;20198;-67
2023/08/22 12:31:03;;;;;;;5.20;4.70;;;34.20;99.90;;;;;;5049798;28;20207;-67
2023/08/22 12:33:30;;;;;;;5.95;5.15;;;34.90;99.90;;;;;;5041676;28;20412;-68
2023/08/22 12:35:57;;;;;;;8.50;4.90;;;34.70;99.90;;;;;;5059918;28;21335;-68
2023/08/22 12:38:24;;;;;;;4.70;4.30;;;34.50;99.90;;;;;;5047892;28;20199;-68
2023/08/22 12:40:51;;;;;;;10.30;6.88;;;34.30;99.90;;;;;;5059252;28;20203;-68
2023/08/22 12:43:19;;;;;;;7.32;6.63;;;33.90;99.90;;;;;;5044386;28;20214;-68
2023/08/22 12:45:46;;;;;;;9.02;5.97;;;33.60;99.90;;;;;;5061278;28;20674;-67
2023/08/22 12:48:13;;;;;;;7.53;6.13;;;34.20;99.90;;;;;;5029628;28;20708;-68
2023/08/22 12:50:40;;;;;;;6.88;5.60;;;34.30;99.90;;;;;;5025306;28;20535;-68
2023/08/22 12:53:09;;;;;;;8.32;7.43;;;33.90;99.90;;;;;;5064207;28;20578;-68
2023/08/22 12:55:40;;;;;;;10.27;8.02;;;33.40;99.90;;;;;;5044240;28;20214;-68
2023/08/22 12:58:08;;;;;;;11.93;7.03;;;33.10;99.90;;;;;;5024693;28;20195;-68